createdAt,value
2023-05-16T00:00:16.685Z,15.56
2023-05-16T00:02:43.442Z,15.27
2023-05-16T00:05:16.522Z,15.21
2023-05-16T00:07:45.139Z,15.16
2023-05-16T00:10:12.595Z,15.14
2023-05-16T00:12:40.201Z,15.14
2023-05-16T00:15:08.917Z,15.14
2023-05-16T00:17:36.401Z,15.12
2023-05-16T00:20:11.241Z,15.11
2023-05-16T00:22:38.272Z,15.09
2023-05-16T00:25:05.203Z,15.07
2023-05-16T00:27:33.878Z,15.06
2023-05-16T00:30:01.631Z,15.03
2023-05-16T00:32:28.612Z,15.03
2023-05-16T00:34:55.218Z,15.01
2023-05-16T00:37:21.842Z,15.00
2023-05-16T00:39:48.446Z,15.00
2023-05-16T00:42:15.363Z,15.00
2023-05-16T00:44:41.927Z,14.97
2023-05-16T00:47:08.573Z,14.97
2023-05-16T00:49:35.134Z,15.28
2023-05-16T00:52:02.325Z,14.98
2023-05-16T00:54:30.807Z,14.96
2023-05-16T00:56:58.308Z,14.95
2023-05-16T00:59:25.205Z,14.94
2023-05-16T01:01:53.021Z,14.95
2023-05-16T01:04:20.990Z,14.94
2023-05-16T01:06:47.627Z,14.94
2023-05-16T01:09:16.769Z,15.28
2023-05-16T01:12:08.466Z,15.05
2023-05-16T01:15:00.009Z,15.10
2023-05-16T01:17:38.755Z,15.02
2023-05-16T01:20:36.363Z,15.08
2023-05-16T01:23:19.782Z,15.03
2023-05-16T01:26:10.117Z,15.04
2023-05-16T01:28:37.646Z,14.95
2023-05-16T01:31:04.485Z,14.93
2023-05-16T01:33:31.118Z,14.93
2023-05-16T01:36:14.564Z,15.01
2023-05-16T01:39:07.887Z,15.00
2023-05-16T01:41:47.982Z,14.98
2023-05-16T01:44:28.069Z,15.00
2023-05-16T01:46:59.929Z,14.92
2023-05-16T01:49:36.499Z,14.95
2023-05-16T01:52:12.334Z,14.97
2023-05-16T01:54:45.495Z,14.93
2023-05-16T01:57:13.310Z,14.88
2023-05-16T01:59:42.994Z,14.87
2023-05-16T02:02:09.811Z,14.87
2023-05-16T02:04:36.448Z,15.17
2023-05-16T02:07:03.162Z,14.90
2023-05-16T02:09:29.700Z,15.19
2023-05-16T02:11:56.339Z,14.93
2023-05-16T02:14:22.829Z,15.21
2023-05-16T02:16:49.618Z,14.93
2023-05-16T02:19:16.498Z,14.91
2023-05-16T02:21:43.230Z,14.90
2023-05-16T02:24:09.773Z,15.22
2023-05-16T02:26:36.467Z,14.95
2023-05-16T02:29:02.997Z,15.25
2023-05-16T02:31:34.903Z,15.01
2023-05-16T02:34:02.196Z,14.94
2023-05-16T02:36:29.033Z,14.93
2023-05-16T02:38:55.801Z,14.90
2023-05-16T02:41:22.575Z,14.90
2023-05-16T02:43:49.870Z,14.89
2023-05-16T02:46:28.176Z,14.98
2023-05-16T02:48:55.255Z,14.90
2023-05-16T02:51:23.257Z,14.90
2023-05-16T02:53:50.259Z,14.91
2023-05-16T02:56:17.183Z,14.92
2023-05-16T02:58:44.770Z,14.93
2023-05-16T03:01:11.464Z,14.94
2023-05-16T03:03:38.148Z,15.27
2023-05-16T03:06:04.929Z,15.01
2023-05-16T03:08:31.768Z,15.31
2023-05-16T03:10:58.514Z,15.01
2023-05-16T03:13:25.291Z,14.96
2023-05-16T03:15:51.972Z,14.93
2023-05-16T03:18:18.498Z,15.25
2023-05-16T03:20:45.178Z,14.95
2023-05-16T03:23:11.737Z,15.24
2023-05-16T03:25:38.710Z,14.93
2023-05-16T03:28:07.058Z,14.88
2023-05-16T03:30:34.648Z,14.85
2023-05-16T03:33:01.514Z,14.83
2023-05-16T03:35:29.184Z,14.83
2023-05-16T03:37:56.246Z,14.86
2023-05-16T03:40:22.859Z,14.89
2023-05-16T03:42:49.414Z,15.25
2023-05-16T03:45:16.014Z,15.09
2023-05-16T03:47:42.922Z,15.45
2023-05-16T03:50:10.117Z,15.33
2023-05-16T03:52:36.893Z,15.39
2023-05-16T03:55:04.351Z,15.47
2023-05-16T03:57:32.447Z,15.55
2023-05-16T03:59:59.114Z,15.61
2023-05-16T04:02:25.883Z,15.98
2023-05-16T04:04:52.651Z,15.81
2023-05-16T04:07:20.329Z,16.14
2023-05-16T04:09:48.582Z,15.93
2023-05-16T04:12:15.297Z,15.95
2023-05-16T04:14:41.913Z,15.99
2023-05-16T04:17:08.661Z,16.32
2023-05-16T04:19:35.423Z,16.12
2023-05-16T04:22:02.151Z,16.16
2023-05-16T04:24:29.203Z,16.46
2023-05-16T04:26:55.814Z,16.17
2023-05-16T04:29:22.313Z,16.43
2023-05-16T04:31:48.952Z,16.06
2023-05-16T04:34:16.115Z,16.30
2023-05-16T04:36:42.772Z,15.88
2023-05-16T04:39:09.584Z,16.10
2023-05-16T04:41:36.384Z,15.66
2023-05-16T04:44:06.539Z,15.54
2023-05-16T04:46:33.244Z,15.41
2023-05-16T04:48:59.774Z,15.68
2023-05-16T04:51:26.695Z,15.29
2023-05-16T04:53:53.320Z,15.22
2023-05-16T04:56:20.605Z,15.16
2023-05-16T04:58:47.258Z,15.09
2023-05-16T05:01:13.849Z,15.39
2023-05-16T05:03:40.529Z,15.05
2023-05-16T05:06:07.278Z,15.01
2023-05-16T05:08:33.755Z,15.30
2023-05-16T05:11:00.475Z,14.99
2023-05-16T05:13:27.002Z,15.28
2023-05-16T05:15:53.809Z,14.96
2023-05-16T05:18:20.615Z,14.89
2023-05-16T05:20:47.257Z,14.86
2023-05-16T05:23:13.906Z,14.85
2023-05-16T05:25:41.040Z,14.81
2023-05-16T05:28:07.652Z,14.77
2023-05-16T05:30:34.241Z,14.76
2023-05-16T05:33:00.920Z,14.74
2023-05-16T05:35:28.001Z,15.02
2023-05-16T05:37:54.861Z,14.72
2023-05-16T05:40:21.472Z,14.65
2023-05-16T05:42:48.009Z,14.94
2023-05-16T05:45:16.148Z,14.59
2023-05-16T05:47:43.783Z,14.55
2023-05-16T05:50:11.731Z,14.51
2023-05-16T05:52:38.983Z,14.49
2023-05-16T05:55:06.070Z,14.46
2023-05-16T05:57:32.926Z,14.45
2023-05-16T05:59:59.561Z,14.42
2023-05-16T06:02:26.858Z,14.73
2023-05-16T06:04:53.625Z,14.46
2023-05-16T06:07:20.200Z,14.72
2023-05-16T06:09:47.184Z,14.41
2023-05-16T06:12:13.840Z,14.36
2023-05-16T06:14:40.420Z,14.33
2023-05-16T06:17:07.216Z,14.32
2023-05-16T06:19:33.982Z,14.28
2023-05-16T06:22:02.084Z,14.58
2023-05-16T06:24:30.028Z,14.29
2023-05-16T06:26:56.617Z,14.26
2023-05-16T06:29:23.448Z,14.26
2023-05-16T06:31:50.087Z,14.23
2023-05-16T06:34:16.635Z,14.55
2023-05-16T06:36:44.433Z,14.27
2023-05-16T06:39:11.240Z,14.26
2023-05-16T06:41:37.882Z,14.25
2023-05-16T06:44:05.211Z,14.24
2023-05-16T06:46:33.066Z,14.24
2023-05-16T06:48:59.904Z,14.26
2023-05-16T06:51:26.596Z,14.27
2023-05-16T06:53:53.157Z,14.57
2023-05-16T06:56:19.767Z,14.35
2023-05-16T06:58:46.508Z,14.65
2023-05-16T07:01:13.356Z,14.42
2023-05-16T07:03:40.203Z,14.43
2023-05-16T07:06:07.159Z,14.45
2023-05-16T07:08:36.064Z,14.47
2023-05-16T07:11:02.811Z,14.52
2023-05-16T07:13:29.392Z,14.83
2023-05-16T07:15:56.275Z,14.62
2023-05-16T07:18:22.931Z,14.62
2023-05-16T07:20:49.536Z,14.94
2023-05-16T07:23:16.200Z,14.71
2023-05-16T07:25:42.806Z,14.99
2023-05-16T07:28:09.397Z,14.77
2023-05-16T07:30:36.102Z,14.80
2023-05-16T07:33:02.683Z,15.08
2023-05-16T07:35:29.735Z,14.87
2023-05-16T07:37:56.508Z,14.87
2023-05-16T07:40:26.111Z,15.19
2023-05-16T07:42:52.751Z,14.97
2023-05-16T07:45:19.605Z,15.27
2023-05-16T07:47:46.513Z,15.07
2023-05-16T07:50:13.318Z,15.08
2023-05-16T07:52:39.980Z,15.12
2023-05-16T07:55:06.963Z,15.43
2023-05-16T07:57:33.635Z,15.23
2023-05-16T08:00:00.715Z,15.54
2023-05-16T08:02:31.203Z,15.40
2023-05-16T08:04:58.290Z,15.48
2023-05-16T08:07:25.096Z,15.59
2023-05-16T08:09:51.756Z,15.67
2023-05-16T08:12:18.380Z,16.02
2023-05-16T08:14:45.054Z,15.97
2023-05-16T08:17:11.865Z,16.03
2023-05-16T08:19:38.502Z,16.14
2023-05-16T08:22:06.945Z,16.44
2023-05-16T08:24:33.610Z,16.32
2023-05-16T08:27:00.684Z,16.63
2023-05-16T08:29:27.347Z,16.49
2023-05-16T08:31:54.097Z,16.79
2023-05-16T08:34:20.899Z,16.61
2023-05-16T08:36:47.522Z,16.58
2023-05-16T08:39:14.238Z,16.89
2023-05-16T08:41:41.353Z,16.71
2023-05-16T08:44:08.600Z,16.74
2023-05-16T08:46:36.128Z,16.79
2023-05-16T08:49:08.163Z,16.85
2023-05-16T08:51:35.796Z,16.96
2023-05-16T08:54:13.634Z,17.12
2023-05-16T08:56:42.272Z,17.18
2023-05-16T08:59:10.220Z,17.26
2023-05-16T09:01:37.486Z,17.31
2023-05-16T09:04:09.775Z,17.42
2023-05-16T09:06:37.212Z,17.47
2023-05-16T09:09:04.920Z,17.57
2023-05-16T09:11:31.575Z,17.66
2023-05-16T09:13:58.168Z,17.96
2023-05-16T09:16:24.844Z,17.76
2023-05-16T09:18:57.414Z,17.81
2023-05-16T09:21:33.872Z,17.87
2023-05-16T09:24:07.871Z,17.91
2023-05-16T09:26:36.768Z,17.91
2023-05-16T09:29:12.308Z,18.06
2023-05-16T09:31:39.325Z,18.10
2023-05-16T09:34:11.400Z,18.19
2023-05-16T09:36:42.165Z,18.21
2023-05-16T09:39:10.329Z,18.27
2023-05-16T09:41:36.955Z,18.31
2023-05-16T09:44:06.985Z,18.63
2023-05-16T09:46:38.320Z,18.53
2023-05-16T09:49:05.073Z,18.57
2023-05-16T09:51:32.398Z,18.68
2023-05-16T09:54:00.309Z,18.76
2023-05-16T09:56:27.143Z,18.82
2023-05-16T09:58:53.830Z,18.85
2023-05-16T10:01:20.824Z,18.86
2023-05-16T10:03:47.786Z,18.87
2023-05-16T10:06:16.813Z,18.93
2023-05-16T10:08:44.060Z,19.02
2023-05-16T10:11:11.963Z,19.14
2023-05-16T10:13:39.791Z,19.26
2023-05-16T10:16:10.279Z,19.42
2023-05-16T10:18:39.028Z,19.53
2023-05-16T10:21:13.747Z,19.64
2023-05-16T10:23:46.044Z,19.68
2023-05-16T10:26:14.913Z,19.67
2023-05-16T10:28:42.208Z,19.63
2023-05-16T10:31:11.218Z,19.64
2023-05-16T10:33:37.921Z,19.57
2023-05-16T10:36:05.742Z,19.58
2023-05-16T10:38:33.926Z,19.60
2023-05-16T10:41:01.476Z,19.62
2023-05-16T10:43:31.082Z,19.67
2023-05-16T10:46:03.026Z,19.68
2023-05-16T10:48:31.820Z,19.73
2023-05-16T10:50:58.703Z,19.79
2023-05-16T10:53:34.993Z,19.87
2023-05-16T10:56:01.823Z,19.94
2023-05-16T10:58:31.289Z,20.05
2023-05-16T11:01:25.030Z,20.32
2023-05-16T11:03:57.648Z,20.44
2023-05-16T11:06:26.009Z,20.55
2023-05-16T11:09:27.918Z,20.84
2023-05-16T11:11:56.135Z,20.89
2023-05-16T11:14:27.326Z,20.98
2023-05-16T11:17:01.765Z,21.02
2023-05-16T11:19:30.532Z,20.99
2023-05-16T11:22:10.269Z,21.11
2023-05-16T11:24:39.195Z,21.10
2023-05-16T11:27:07.094Z,21.19
2023-05-16T11:29:35.988Z,21.29
2023-05-16T11:32:05.313Z,21.43
2023-05-16T11:34:36.189Z,21.58
2023-05-16T11:37:02.850Z,21.75
2023-05-16T11:39:32.373Z,21.90
2023-05-16T11:41:59.172Z,22.00
2023-05-16T11:44:26.399Z,22.09
2023-05-16T11:46:53.235Z,22.15
2023-05-16T11:49:20.112Z,22.15
2023-05-16T11:51:46.951Z,22.14
2023-05-16T11:54:13.910Z,22.06
2023-05-16T11:56:41.515Z,22.00
2023-05-16T11:59:08.302Z,21.95
2023-05-16T12:01:37.400Z,21.96
2023-05-16T12:04:12.312Z,22.06
2023-05-16T12:06:39.984Z,22.08
2023-05-16T12:09:14.974Z,22.12
2023-05-16T12:11:44.512Z,22.13
2023-05-16T12:14:13.445Z,22.07
2023-05-16T12:16:45.224Z,21.96
2023-05-16T12:19:12.623Z,21.89
2023-05-16T12:21:39.955Z,21.78
2023-05-16T12:24:10.742Z,21.72
2023-05-16T12:26:40.652Z,21.58
2023-05-16T12:29:07.988Z,21.41
2023-05-16T12:31:41.893Z,21.33
2023-05-16T12:34:19.202Z,21.22
2023-05-16T12:36:46.097Z,20.95
2023-05-16T12:39:14.253Z,20.82
2023-05-16T12:41:43.398Z,20.81
2023-05-16T12:44:17.049Z,20.85
2023-05-16T12:46:52.288Z,20.80
2023-05-16T12:49:23.029Z,20.84
2023-05-16T12:51:55.244Z,20.83
2023-05-16T12:54:25.690Z,20.71
2023-05-16T12:56:52.441Z,20.64
2023-05-16T12:59:20.514Z,20.64
2023-05-16T13:01:47.589Z,20.68
2023-05-16T13:04:20.336Z,20.75
2023-05-16T13:06:57.285Z,20.87
2023-05-16T13:09:27.170Z,20.96
2023-05-16T13:11:55.083Z,21.05
2023-05-16T13:14:21.916Z,21.16
2023-05-16T13:16:48.675Z,21.25
2023-05-16T13:19:15.589Z,21.36
2023-05-16T13:21:42.339Z,21.48
2023-05-16T13:24:09.174Z,21.60
2023-05-16T13:26:35.888Z,21.69
2023-05-16T13:29:02.610Z,21.71
2023-05-16T13:31:29.437Z,21.69
2023-05-16T13:33:56.143Z,21.64
2023-05-16T13:36:22.789Z,21.59
2023-05-16T13:38:49.428Z,21.47
2023-05-16T13:41:16.297Z,21.32
2023-05-16T13:43:42.977Z,21.19
2023-05-16T13:46:09.782Z,21.05
2023-05-16T13:48:36.513Z,20.91
2023-05-16T13:51:03.364Z,20.78
2023-05-16T13:53:30.141Z,20.72
2023-05-16T13:55:56.808Z,20.64
2023-05-16T13:58:23.514Z,20.58
2023-05-16T14:00:51.011Z,20.53
2023-05-16T14:03:18.210Z,20.45
2023-05-16T14:05:45.109Z,20.37
2023-05-16T14:08:11.865Z,20.29
2023-05-16T14:10:38.533Z,20.22
2023-05-16T14:13:05.344Z,20.13
2023-05-16T14:15:32.116Z,20.04
2023-05-16T14:17:59.775Z,19.98
2023-05-16T14:20:26.939Z,19.89
2023-05-16T14:22:53.615Z,19.81
2023-05-16T14:25:20.888Z,19.73
2023-05-16T14:27:47.910Z,19.67
2023-05-16T14:30:14.690Z,19.59
2023-05-16T14:32:41.669Z,19.53
2023-05-16T14:35:09.753Z,19.47
2023-05-16T14:37:36.586Z,19.44
2023-05-16T14:40:05.401Z,19.45
2023-05-16T14:42:32.155Z,19.51
2023-05-16T14:45:01.378Z,19.57
2023-05-16T14:47:29.153Z,19.62
2023-05-16T14:49:56.467Z,19.63
2023-05-16T14:52:23.356Z,19.66
2023-05-16T14:54:51.436Z,19.66
2023-05-16T14:57:18.197Z,19.62
2023-05-16T14:59:44.946Z,19.59
2023-05-16T15:02:11.666Z,19.56
2023-05-16T15:04:38.419Z,19.54
2023-05-16T15:07:05.239Z,19.52
2023-05-16T15:09:32.004Z,19.50
2023-05-16T15:11:58.704Z,19.50
2023-05-16T15:14:27.252Z,19.50
2023-05-16T15:16:54.097Z,19.50
2023-05-16T15:19:20.866Z,19.51
2023-05-16T15:21:47.629Z,19.49
2023-05-16T15:24:14.564Z,19.49
2023-05-16T15:26:41.713Z,19.50
2023-05-16T15:29:08.532Z,19.52
2023-05-16T15:31:35.335Z,19.57
2023-05-16T15:34:02.142Z,19.65
2023-05-16T15:36:29.248Z,19.71
2023-05-16T15:38:55.906Z,19.77
2023-05-16T15:41:37.098Z,19.80
2023-05-16T15:44:10.588Z,19.88
2023-05-16T15:46:37.300Z,19.93
2023-05-16T15:49:04.001Z,19.96
2023-05-16T15:51:31.080Z,19.98
2023-05-16T15:53:57.814Z,19.99
2023-05-16T15:56:27.056Z,19.98
2023-05-16T15:58:55.876Z,19.98
2023-05-16T16:01:22.717Z,19.93
2023-05-16T16:03:49.598Z,19.91
2023-05-16T16:06:16.619Z,19.88
2023-05-16T16:08:43.409Z,19.87
2023-05-16T16:11:10.277Z,19.83
2023-05-16T16:13:37.170Z,19.77
2023-05-16T16:16:04.320Z,19.68
2023-05-16T16:18:31.149Z,19.59
2023-05-16T16:20:58.069Z,19.49
2023-05-16T16:23:24.772Z,19.42
2023-05-16T16:25:51.437Z,19.36
2023-05-16T16:28:18.805Z,19.32
2023-05-16T16:30:47.654Z,19.32
2023-05-16T16:33:14.480Z,19.32
2023-05-16T16:35:41.320Z,19.33
2023-05-16T16:38:08.068Z,19.34
2023-05-16T16:40:35.096Z,19.34
2023-05-16T16:43:01.886Z,19.32
2023-05-16T16:45:28.984Z,19.28
2023-05-16T16:47:56.147Z,19.21
2023-05-16T16:50:23.167Z,19.14
2023-05-16T16:52:49.890Z,19.06
2023-05-16T16:55:16.885Z,18.98
2023-05-16T16:57:43.639Z,18.93
2023-05-16T17:00:11.654Z,18.87
2023-05-16T17:02:38.701Z,18.83
2023-05-16T17:05:06.727Z,18.84
2023-05-16T17:07:34.028Z,18.83
2023-05-16T17:10:01.337Z,18.82
2023-05-16T17:12:29.007Z,18.82
2023-05-16T17:14:57.362Z,18.82
2023-05-16T17:17:26.237Z,18.80
2023-05-16T17:19:53.270Z,18.79
2023-05-16T17:22:21.524Z,18.76
2023-05-16T17:24:48.383Z,18.74
2023-05-16T17:27:15.111Z,18.69
2023-05-16T17:29:41.710Z,18.68
2023-05-16T17:32:08.430Z,19.03
2023-05-16T17:34:35.527Z,18.67
2023-05-16T17:37:02.236Z,18.60
2023-05-16T17:39:29.273Z,18.55
2023-05-16T17:41:57.470Z,18.50
2023-05-16T17:44:24.096Z,18.43
2023-05-16T17:46:50.652Z,18.77
2023-05-16T17:49:17.721Z,18.39
2023-05-16T17:51:52.669Z,18.37
2023-05-16T17:54:20.725Z,18.21
2023-05-16T17:56:48.774Z,18.12
2023-05-16T17:59:16.148Z,18.07
2023-05-16T18:01:43.614Z,18.01
2023-05-16T18:04:10.806Z,17.93
2023-05-16T18:06:38.449Z,17.89
2023-05-16T18:09:10.490Z,17.83
2023-05-16T18:11:40.463Z,17.81
2023-05-16T18:14:09.455Z,17.74
2023-05-16T18:16:36.448Z,17.66
2023-05-16T18:19:05.031Z,17.60
2023-05-16T18:21:32.304Z,17.53
2023-05-16T18:23:59.626Z,17.49
2023-05-16T18:26:28.065Z,17.46
2023-05-16T18:28:54.736Z,17.36
2023-05-16T18:31:21.548Z,17.71
2023-05-16T18:33:48.503Z,17.34
2023-05-16T18:36:15.139Z,17.23
2023-05-16T18:38:41.819Z,17.55
2023-05-16T18:41:08.449Z,17.14
2023-05-16T18:43:36.739Z,17.46
2023-05-16T18:46:04.177Z,17.03
2023-05-16T18:48:31.068Z,16.93
2023-05-16T18:50:57.964Z,16.84
2023-05-16T18:53:24.737Z,16.79
2023-05-16T18:55:51.373Z,16.72
2023-05-16T18:58:18.246Z,17.07
2023-05-16T19:00:45.057Z,16.67
2023-05-16T19:03:13.577Z,16.59
2023-05-16T19:05:40.391Z,16.52
2023-05-16T19:08:07.250Z,16.46
2023-05-16T19:10:38.134Z,16.41
2023-05-16T19:13:08.323Z,16.35
2023-05-16T19:15:36.419Z,16.30
2023-05-16T19:18:05.128Z,16.26
2023-05-16T19:20:33.969Z,16.23
2023-05-16T19:23:01.167Z,16.18
2023-05-16T19:25:28.212Z,16.15
2023-05-16T19:27:55.059Z,16.12
2023-05-16T19:30:21.762Z,16.09
2023-05-16T19:32:48.358Z,16.45
2023-05-16T19:35:15.125Z,16.09
2023-05-16T19:37:41.774Z,16.41
2023-05-16T19:40:08.840Z,16.03
2023-05-16T19:42:35.536Z,15.97
2023-05-16T19:45:02.086Z,16.27
2023-05-16T19:47:31.590Z,15.90
2023-05-16T19:49:58.342Z,15.81
2023-05-16T19:52:26.184Z,16.14
2023-05-16T19:54:52.849Z,15.78
2023-05-16T19:57:19.571Z,15.71
2023-05-16T19:59:46.158Z,16.00
2023-05-16T20:02:12.782Z,15.63
2023-05-16T20:04:39.455Z,15.92
2023-05-16T20:07:07.689Z,15.54
2023-05-16T20:09:34.403Z,15.45
2023-05-16T20:12:01.074Z,15.75
2023-05-16T20:14:29.232Z,15.40
2023-05-16T20:16:56.427Z,15.31
2023-05-16T20:19:23.176Z,15.24
2023-05-16T20:21:50.092Z,15.21
2023-05-16T20:24:17.737Z,15.52
2023-05-16T20:26:44.362Z,15.18
2023-05-16T20:29:11.258Z,15.11
2023-05-16T20:31:38.026Z,15.03
2023-05-16T20:34:04.803Z,15.37
2023-05-16T20:36:32.865Z,15.02
2023-05-16T20:39:00.029Z,14.92
2023-05-16T20:41:26.713Z,14.88
2023-05-16T20:43:53.311Z,15.20
2023-05-16T20:46:19.968Z,14.82
2023-05-16T20:48:46.646Z,15.13
2023-05-16T20:51:13.266Z,14.75
2023-05-16T20:53:39.916Z,14.68
2023-05-16T20:56:06.484Z,14.98
2023-05-16T20:58:33.278Z,14.60
2023-05-16T21:00:59.988Z,14.54
2023-05-16T21:03:26.780Z,14.85
2023-05-16T21:05:53.474Z,14.48
2023-05-16T21:08:20.017Z,14.78
2023-05-16T21:10:46.643Z,14.42
2023-05-16T21:13:13.275Z,14.37
2023-05-16T21:15:40.044Z,14.33
2023-05-16T23:10:47.624Z,12.63
2023-05-16T23:13:14.532Z,12.54
2023-05-16T23:15:41.223Z,12.50
2023-05-16T23:18:07.903Z,12.80
2023-05-16T23:20:34.552Z,12.49
2023-05-16T23:23:01.179Z,12.47
2023-05-16T23:25:28.134Z,12.46
2023-05-16T23:27:57.959Z,12.42
2023-05-16T23:30:25.046Z,12.42
2023-05-16T23:32:52.099Z,12.41
2023-05-16T23:35:18.734Z,12.40
2023-05-16T23:37:45.482Z,12.43
2023-05-16T23:40:12.206Z,12.74
2023-05-16T23:42:40.909Z,12.46
2023-05-16T23:45:08.210Z,12.42
2023-05-16T23:47:35.090Z,12.41
2023-05-16T23:50:02.159Z,12.38
2023-05-16T23:52:28.872Z,12.36
2023-05-16T23:54:55.433Z,12.67
2023-05-16T23:57:22.076Z,12.36
2023-05-16T23:59:48.653Z,12.32
